createdAt,value
2022-10-18T00:00:24.765Z,24.50
2022-10-18T00:05:48.795Z,25.40
2022-10-18T00:10:51.445Z,25.10
2022-10-18T00:16:00.219Z,24.40
2022-10-18T00:21:08.674Z,24.20
2022-10-18T00:26:32.558Z,18.70
2022-10-18T00:31:37.587Z,26.80
2022-10-18T00:36:41.030Z,23.70
2022-10-18T00:41:44.718Z,25.60
2022-10-18T00:46:49.074Z,24.70
2022-10-18T00:52:32.469Z,28.60
2022-10-18T00:57:36.758Z,31.00
2022-10-18T01:02:42.542Z,25.30
2022-10-18T01:08:13.251Z,21.20
2022-10-18T01:13:44.262Z,25.60
2022-10-18T01:19:11.850Z,26.20
2022-10-18T01:24:32.771Z,25.50
2022-10-18T01:29:57.592Z,25.00
2022-10-18T01:35:05.082Z,27.30
2022-10-18T01:40:10.020Z,26.50
2022-10-18T01:45:14.979Z,30.60
2022-10-18T01:50:30.098Z,45.20
2022-10-18T01:55:48.648Z,53.50
2022-10-18T02:01:16.928Z,45.30
2022-10-18T02:06:39.305Z,39.90
2022-10-18T02:11:45.172Z,46.90
2022-10-18T02:16:54.626Z,55.30
2022-10-18T02:21:58.962Z,61.20
2022-10-18T02:27:02.585Z,47.90
2022-10-18T02:32:05.234Z,45.10
2022-10-18T02:37:10.826Z,35.70
2022-10-18T02:42:15.314Z,43.00
2022-10-18T02:47:18.318Z,44.10
2022-10-18T02:52:21.118Z,48.70
2022-10-18T02:57:23.778Z,56.10
2022-10-18T03:02:27.095Z,47.60
2022-10-18T03:07:30.079Z,33.40
2022-10-18T03:12:33.281Z,31.70
2022-10-18T03:17:36.009Z,26.80
2022-10-18T03:22:38.640Z,29.90
2022-10-18T03:27:41.331Z,30.40
2022-10-18T03:32:43.944Z,27.60
2022-10-18T03:37:46.626Z,28.30
2022-10-18T03:42:49.537Z,29.50
2022-10-18T03:47:52.241Z,26.80
2022-10-18T03:52:55.654Z,27.20
2022-10-18T03:57:58.272Z,27.90
2022-10-18T04:03:00.949Z,30.90
2022-10-18T04:08:04.711Z,31.60
2022-10-18T04:13:07.978Z,33.60
2022-10-18T04:18:10.595Z,29.40
2022-10-18T04:23:13.201Z,33.30
2022-10-18T04:28:15.976Z,31.80
2022-10-18T04:33:19.686Z,30.20
2022-10-18T04:38:22.522Z,34.60
2022-10-18T04:43:25.112Z,29.40
2022-10-18T04:48:28.346Z,32.40
2022-10-18T04:53:31.066Z,33.10
2022-10-18T04:58:33.804Z,36.00
2022-10-18T05:03:36.405Z,32.90
2022-10-18T05:08:39.061Z,32.20
2022-10-18T05:13:41.695Z,32.50
2022-10-18T05:18:44.394Z,30.90
2022-10-18T05:23:47.014Z,27.50
2022-10-18T05:28:50.778Z,31.50
2022-10-18T05:33:53.512Z,38.40
2022-10-18T05:38:58.635Z,30.50
2022-10-18T05:44:07.206Z,34.00
2022-10-18T05:49:13.614Z,32.10
2022-10-18T05:59:20.222Z,33.50
2022-10-18T06:04:23.413Z,31.90
2022-10-18T06:09:27.386Z,25.20
2022-10-18T06:14:35.887Z,33.00
2022-10-18T06:19:55.182Z,32.30
2022-10-18T06:24:57.805Z,31.40
2022-10-18T06:30:00.537Z,29.90
2022-10-18T06:35:03.269Z,32.60
2022-10-18T06:40:07.135Z,29.20
2022-10-18T06:45:10.064Z,34.30
2022-10-18T06:50:15.435Z,28.00
2022-10-18T06:55:18.313Z,28.20
2022-10-18T07:00:20.959Z,29.30
2022-10-18T07:05:23.855Z,27.90
2022-10-18T07:10:26.554Z,33.50
2022-10-18T07:15:29.570Z,31.10
2022-10-18T07:20:32.394Z,31.60
2022-10-18T07:25:35.688Z,33.10
2022-10-18T07:30:38.390Z,28.90
2022-10-18T07:35:41.375Z,30.70
2022-10-18T07:40:44.093Z,33.20
2022-10-18T07:45:53.364Z,35.00
2022-10-18T07:51:00.090Z,31.80
2022-10-18T07:56:08.743Z,25.90
2022-10-18T08:01:16.293Z,27.40
2022-10-18T08:06:20.520Z,28.00
2022-10-18T08:11:25.471Z,23.20
2022-10-18T08:16:29.135Z,30.20
2022-10-18T08:21:31.872Z,26.90
2022-10-18T08:26:34.543Z,29.00
2022-10-18T08:31:37.386Z,25.70
2022-10-18T08:36:40.137Z,25.80
2022-10-18T08:42:07.508Z,23.30
2022-10-18T08:47:28.877Z,28.40
2022-10-18T08:52:45.891Z,22.20
2022-10-18T08:57:49.199Z,21.10
2022-10-18T09:03:13.360Z,23.00
2022-10-18T09:08:30.957Z,21.40
2022-10-18T09:13:37.635Z,15.70
2022-10-18T09:18:57.471Z,15.50
2022-10-18T09:24:14.051Z,15.70
2022-10-18T09:29:40.064Z,16.30
2022-10-18T09:39:53.697Z,16.00
2022-10-18T09:45:03.943Z,11.10
2022-10-18T09:50:30.696Z,11.60
2022-10-18T09:55:39.850Z,12.40
2022-10-18T10:00:48.572Z,12.60
2022-10-18T10:06:17.020Z,13.90
2022-10-18T10:11:36.456Z,13.00
2022-10-18T10:16:52.328Z,13.20
2022-10-18T10:21:59.067Z,12.70
2022-10-18T10:27:05.844Z,13.20
2022-10-18T10:32:13.594Z,11.60
2022-10-18T10:37:34.999Z,12.50
2022-10-18T10:42:48.912Z,9.10
2022-10-18T10:47:53.765Z,10.80
2022-10-18T10:52:56.698Z,12.50
2022-10-18T10:58:00.477Z,10.60
2022-10-18T11:03:28.427Z,11.60
2022-10-18T11:08:38.252Z,10.70
2022-10-18T11:14:13.236Z,11.10
2022-10-18T11:19:40.729Z,10.20
2022-10-18T11:24:43.817Z,11.10
2022-10-18T11:29:51.360Z,10.80
2022-10-18T11:35:25.725Z,11.20
2022-10-18T11:41:24.979Z,8.80
2022-10-18T11:47:09.367Z,11.70
2022-10-18T11:52:41.812Z,12.00
2022-10-18T11:58:18.847Z,12.30
2022-10-18T12:03:29.185Z,15.70
2022-10-18T12:08:40.166Z,14.00
2022-10-18T12:13:51.498Z,12.20
2022-10-18T12:18:58.416Z,12.30
2022-10-18T12:24:22.188Z,13.70
2022-10-18T12:29:32.981Z,13.20
2022-10-18T12:34:43.749Z,12.90
2022-10-18T12:45:33.244Z,13.80
2022-10-18T12:50:39.707Z,15.40
2022-10-18T12:55:45.476Z,12.90
2022-10-18T13:00:49.077Z,15.90
2022-10-18T13:06:01.601Z,13.50
2022-10-18T13:11:08.486Z,14.50
2022-10-18T13:16:20.406Z,14.40
2022-10-18T13:21:25.643Z,16.90
2022-10-18T13:27:34.960Z,14.60
2022-10-18T13:32:44.573Z,15.60
2022-10-18T13:37:59.668Z,14.90
2022-10-18T13:43:39.819Z,14.00
2022-10-18T13:49:05.685Z,15.00
2022-10-18T13:54:14.480Z,13.50
2022-10-18T13:59:30.244Z,13.50
2022-10-18T14:04:45.671Z,12.70
2022-10-18T14:09:56.078Z,11.40
2022-10-18T14:15:18.117Z,11.90
2022-10-18T14:20:28.557Z,12.60
2022-10-18T14:25:37.865Z,13.00
2022-10-18T14:30:55.720Z,11.70
2022-10-18T14:36:03.752Z,9.80
2022-10-18T14:41:15.089Z,12.90
2022-10-18T14:46:27.336Z,12.20
2022-10-18T14:51:36.488Z,10.50
2022-10-18T14:56:41.515Z,12.00
2022-10-18T15:01:53.957Z,12.70
2022-10-18T15:06:57.664Z,12.50
2022-10-18T15:12:03.162Z,17.30
2022-10-18T15:17:20.423Z,20.80
2022-10-18T15:22:32.910Z,12.70
2022-10-18T15:27:38.387Z,16.00
2022-10-18T15:32:51.853Z,29.70
2022-10-18T15:37:57.350Z,24.80
2022-10-18T15:43:03.702Z,33.40
2022-10-18T15:48:06.358Z,18.30
2022-10-18T15:53:21.330Z,14.70
2022-10-18T15:58:24.051Z,15.20
2022-10-18T16:03:27.480Z,15.80
2022-10-18T16:08:30.796Z,17.00
2022-10-18T16:13:33.673Z,17.70
2022-10-18T16:18:36.373Z,16.60
2022-10-18T16:23:38.983Z,57.00
2022-10-18T16:28:42.113Z,32.50
2022-10-18T16:33:45.992Z,33.10
2022-10-18T16:38:49.363Z,41.70
2022-10-18T16:43:52.083Z,59.70
2022-10-18T16:48:55.410Z,16.80
2022-10-18T16:53:58.418Z,17.50
2022-10-18T16:59:01.372Z,17.10
2022-10-18T17:04:04.152Z,15.90
2022-10-18T17:09:06.841Z,17.00
2022-10-18T17:14:09.539Z,14.80
2022-10-18T17:19:12.236Z,31.00
2022-10-18T17:24:14.935Z,18.30
2022-10-18T17:29:17.736Z,29.70
2022-10-18T17:34:21.532Z,17.20
2022-10-18T17:39:24.965Z,16.20
2022-10-18T17:44:27.559Z,14.90
2022-10-18T17:49:30.251Z,15.10
2022-10-18T17:54:32.897Z,17.70
2022-10-18T17:59:35.669Z,12.60
2022-10-18T18:04:38.444Z,13.50
2022-10-18T18:09:41.095Z,12.80
2022-10-18T18:14:43.866Z,12.70
2022-10-18T18:24:54.104Z,10.90
2022-10-18T18:29:56.888Z,13.00
2022-10-18T18:34:59.577Z,13.30
2022-10-18T18:40:02.180Z,13.50
2022-10-18T18:45:05.760Z,21.80
2022-10-18T18:50:08.799Z,20.50
2022-10-18T18:55:11.495Z,16.30
2022-10-18T19:00:15.116Z,15.50
2022-10-18T19:05:17.883Z,13.40
2022-10-18T19:10:20.595Z,10.70
2022-10-18T19:15:23.621Z,12.70
2022-10-18T19:20:26.321Z,10.80
2022-10-18T19:25:29.126Z,12.70
2022-10-18T19:30:31.720Z,8.70
2022-10-18T19:35:34.335Z,8.60
2022-10-18T19:40:37.015Z,10.80
2022-10-18T19:45:39.715Z,10.60
2022-10-18T19:50:42.413Z,6.20
2022-10-18T19:55:45.108Z,10.40
2022-10-18T20:00:52.731Z,10.20
2022-10-18T20:05:56.895Z,10.00
2022-10-18T20:11:04.787Z,8.90
2022-10-18T20:16:09.268Z,10.50
2022-10-18T20:21:14.359Z,11.50
2022-10-18T20:26:20.804Z,8.20
2022-10-18T20:36:31.740Z,10.00
2022-10-18T20:41:38.117Z,11.60
2022-10-18T20:51:44.788Z,9.20
2022-10-18T20:56:47.415Z,9.00
2022-10-18T21:01:50.159Z,11.80
2022-10-18T21:06:53.070Z,9.00
2022-10-18T21:11:56.308Z,9.40
2022-10-18T21:16:59.313Z,11.90
2022-10-18T21:22:02.007Z,8.00
2022-10-18T21:27:04.709Z,8.70
2022-10-18T21:32:07.406Z,11.40
2022-10-18T21:37:10.101Z,10.20
2022-10-18T21:42:13.835Z,13.60
2022-10-18T21:47:16.499Z,10.60
2022-10-18T21:52:19.122Z,11.80
2022-10-18T21:57:21.823Z,10.00
2022-10-18T22:02:24.519Z,8.90
2022-10-18T22:07:27.218Z,11.90
2022-10-18T22:12:30.041Z,6.50
2022-10-18T22:17:32.960Z,8.30
2022-10-18T22:22:35.929Z,9.40
2022-10-18T22:27:38.630Z,12.80
2022-10-18T22:32:41.308Z,13.60
2022-10-18T22:37:44.024Z,8.90
2022-10-18T22:42:46.727Z,8.90
2022-10-18T22:47:49.338Z,9.00
2022-10-18T22:52:54.018Z,6.00
2022-10-18T22:57:57.362Z,8.90
2022-10-18T23:02:59.950Z,11.90
2022-10-18T23:08:02.543Z,11.10
2022-10-18T23:13:06.311Z,11.30
2022-10-18T23:18:08.924Z,10.80
2022-10-18T23:23:12.785Z,12.90
2022-10-18T23:28:15.379Z,11.50
2022-10-18T23:33:17.992Z,10.30
2022-10-18T23:38:20.611Z,12.00
2022-10-18T23:43:23.513Z,7.20
2022-10-18T23:48:27.263Z,9.40
2022-10-18T23:53:30.264Z,8.50
2022-10-18T23:58:34.649Z,10.20
